sensor_id;sensor_type;location;lat;lon;timestamp;temperature;humidity
55203;DHT22;41077;52.956;6.796;2023-08-07T00:00:24;14.60;99.90
55203;DHT22;41077;52.956;6.796;2023-08-07T00:02:49;14.60;99.90
55203;DHT22;41077;52.956;6.796;2023-08-07T00:05:15;14.60;99.90
55203;DHT22;41077;52.956;6.796;2023-08-07T00:07:42;14.60;99.90
55203;DHT22;41077;52.956;6.796;2023-08-07T00:10:08;14.60;99.90
55203;DHT22;41077;52.956;6.796;2023-08-07T00:12:34;14.60;99.90
55203;DHT22;41077;52.956;6.796;2023-08-07T00:15:01;14.70;99.90
55203;DHT22;41077;52.956;6.796;2023-08-07T00:17:27;14.70;99.90
55203;DHT22;41077;52.956;6.796;2023-08-07T00:19:52;14.70;99.90
55203;DHT22;41077;52.956;6.796;2023-08-07T00:22:18;14.70;99.90
55203;DHT22;41077;52.956;6.796;2023-08-07T00:24:44;14.70;99.90
55203;DHT22;41077;52.956;6.796;2023-08-07T00:27:09;14.80;99.90
55203;DHT22;41077;52.956;6.796;2023-08-07T00:29:36;14.80;99.90
55203;DHT22;41077;52.956;6.796;2023-08-07T00:32:02;14.80;99.90
55203;DHT22;41077;52.956;6.796;2023-08-07T00:34:29;14.80;99.90
55203;DHT22;41077;52.956;6.796;2023-08-07T00:36:54;14.90;99.90
55203;DHT22;41077;52.956;6.796;2023-08-07T00:39:20;14.90;99.90
55203;DHT22;41077;52.956;6.796;2023-08-07T00:41:46;14.90;99.90
55203;DHT22;41077;52.956;6.796;2023-08-07T00:44:12;14.90;99.90
55203;DHT22;41077;52.956;6.796;2023-08-07T00:46:38;15.00;99.90
55203;DHT22;41077;52.956;6.796;2023-08-07T00:49:07;15.00;99.90
55203;DHT22;41077;52.956;6.796;2023-08-07T00:51:34;15.00;99.90
55203;DHT22;41077;52.956;6.796;2023-08-07T00:54:02;15.00;99.90
55203;DHT22;41077;52.956;6.796;2023-08-07T00:56:29;15.10;99.90
55203;DHT22;41077;52.956;6.796;2023-08-07T00:58:55;15.10;99.90
55203;DHT22;41077;52.956;6.796;2023-08-07T01:01:21;15.10;99.90
55203;DHT22;41077;52.956;6.796;2023-08-07T01:03:47;15.10;99.90
55203;DHT22;41077;52.956;6.796;2023-08-07T01:06:12;15.10;99.90
55203;DHT22;41077;52.956;6.796;2023-08-07T01:08:38;15.00;99.90
55203;DHT22;41077;52.956;6.796;2023-08-07T01:11:34;15.00;99.90
55203;DHT22;41077;52.956;6.796;2023-08-07T01:14:08;15.00;99.90
55203;DHT22;41077;52.956;6.796;2023-08-07T01:19:25;14.90;99.90
55203;DHT22;41077;52.956;6.796;2023-08-07T01:22:10;14.90;99.90
55203;DHT22;41077;52.956;6.796;2023-08-07T01:24:37;14.90;99.90
55203;DHT22;41077;52.956;6.796;2023-08-07T01:30:28;14.80;99.90
55203;DHT22;41077;52.956;6.796;2023-08-07T01:35:35;14.70;99.90
55203;DHT22;41077;52.956;6.796;2023-08-07T01:38:01;14.80;99.90
55203;DHT22;41077;52.956;6.796;2023-08-07T01:40:28;14.70;99.90
55203;DHT22;41077;52.956;6.796;2023-08-07T01:42:55;14.70;99.90
55203;DHT22;41077;52.956;6.796;2023-08-07T01:45:28;14.70;99.90
55203;DHT22;41077;52.956;6.796;2023-08-07T01:47:54;14.70;99.90
55203;DHT22;41077;52.956;6.796;2023-08-07T01:50:21;14.80;99.90
55203;DHT22;41077;52.956;6.796;2023-08-07T01:52:47;14.80;99.90
55203;DHT22;41077;52.956;6.796;2023-08-07T01:55:14;14.70;99.90
55203;DHT22;41077;52.956;6.796;2023-08-07T01:57:40;14.70;99.90
55203;DHT22;41077;52.956;6.796;2023-08-07T02:00:06;14.70;99.90
55203;DHT22;41077;52.956;6.796;2023-08-07T02:02:34;14.70;99.90
55203;DHT22;41077;52.956;6.796;2023-08-07T02:04:59;14.70;99.90
55203;DHT22;41077;52.956;6.796;2023-08-07T02:07:25;14.70;99.90
55203;DHT22;41077;52.956;6.796;2023-08-07T02:09:51;14.60;99.90
55203;DHT22;41077;52.956;6.796;2023-08-07T02:12:17;14.60;99.90
55203;DHT22;41077;52.956;6.796;2023-08-07T02:14:42;14.60;99.90
55203;DHT22;41077;52.956;6.796;2023-08-07T02:17:08;14.60;99.90
55203;DHT22;41077;52.956;6.796;2023-08-07T02:19:33;14.70;99.90
55203;DHT22;41077;52.956;6.796;2023-08-07T02:21:59;14.60;99.90
55203;DHT22;41077;52.956;6.796;2023-08-07T02:24:25;14.60;99.90
55203;DHT22;41077;52.956;6.796;2023-08-07T02:26:50;14.60;99.90
55203;DHT22;41077;52.956;6.796;2023-08-07T02:29:16;14.60;99.90
55203;DHT22;41077;52.956;6.796;2023-08-07T02:31:42;14.60;99.90
55203;DHT22;41077;52.956;6.796;2023-08-07T02:34:08;14.60;99.90
55203;DHT22;41077;52.956;6.796;2023-08-07T02:36:33;14.60;99.90
55203;DHT22;41077;52.956;6.796;2023-08-07T02:38:59;14.60;99.90
55203;DHT22;41077;52.956;6.796;2023-08-07T02:41:25;14.60;99.90
55203;DHT22;41077;52.956;6.796;2023-08-07T02:43:50;14.70;99.90
55203;DHT22;41077;52.956;6.796;2023-08-07T02:46:16;14.60;99.90
55203;DHT22;41077;52.956;6.796;2023-08-07T02:48:43;14.60;99.90
55203;DHT22;41077;52.956;6.796;2023-08-07T02:51:09;14.70;99.90
55203;DHT22;41077;52.956;6.796;2023-08-07T02:53:35;14.60;99.90
55203;DHT22;41077;52.956;6.796;2023-08-07T02:56:01;14.70;99.90
55203;DHT22;41077;52.956;6.796;2023-08-07T02:58:27;14.80;99.90
55203;DHT22;41077;52.956;6.796;2023-08-07T03:00:52;14.80;99.90
55203;DHT22;41077;52.956;6.796;2023-08-07T03:03:18;14.70;99.90
55203;DHT22;41077;52.956;6.796;2023-08-07T03:05:50;14.70;99.90
55203;DHT22;41077;52.956;6.796;2023-08-07T03:08:16;14.70;99.90
55203;DHT22;41077;52.956;6.796;2023-08-07T03:10:49;14.70;99.90
55203;DHT22;41077;52.956;6.796;2023-08-07T03:13:15;14.70;99.90
55203;DHT22;41077;52.956;6.796;2023-08-07T03:15:40;14.60;99.90
55203;DHT22;41077;52.956;6.796;2023-08-07T03:18:06;14.50;99.90
55203;DHT22;41077;52.956;6.796;2023-08-07T03:20:32;14.50;99.90
55203;DHT22;41077;52.956;6.796;2023-08-07T03:22:57;14.40;99.90
55203;DHT22;41077;52.956;6.796;2023-08-07T03:25:23;14.40;99.90
55203;DHT22;41077;52.956;6.796;2023-08-07T03:27:49;14.40;99.90
55203;DHT22;41077;52.956;6.796;2023-08-07T03:30:14;14.40;99.90
55203;DHT22;41077;52.956;6.796;2023-08-07T03:32:40;14.40;99.90
55203;DHT22;41077;52.956;6.796;2023-08-07T03:35:07;14.40;99.90
55203;DHT22;41077;52.956;6.796;2023-08-07T03:37:33;14.40;99.90
55203;DHT22;41077;52.956;6.796;2023-08-07T03:39:58;14.40;99.90
55203;DHT22;41077;52.956;6.796;2023-08-07T03:42:24;14.40;99.90
55203;DHT22;41077;52.956;6.796;2023-08-07T03:44:50;14.40;99.90
55203;DHT22;41077;52.956;6.796;2023-08-07T03:47:15;14.30;99.90
55203;DHT22;41077;52.956;6.796;2023-08-07T03:49:41;14.30;99.90
55203;DHT22;41077;52.956;6.796;2023-08-07T03:52:07;14.30;99.90
55203;DHT22;41077;52.956;6.796;2023-08-07T03:54:32;14.30;99.90
55203;DHT22;41077;52.956;6.796;2023-08-07T03:56:58;14.30;99.90
55203;DHT22;41077;52.956;6.796;2023-08-07T03:59:24;14.30;99.90
55203;DHT22;41077;52.956;6.796;2023-08-07T04:01:49;14.30;99.90
55203;DHT22;41077;52.956;6.796;2023-08-07T04:04:15;14.30;99.90
55203;DHT22;41077;52.956;6.796;2023-08-07T04:06:41;14.30;99.90
55203;DHT22;41077;52.956;6.796;2023-08-07T04:09:06;14.30;99.90
55203;DHT22;41077;52.956;6.796;2023-08-07T04:11:35;14.30;99.90
55203;DHT22;41077;52.956;6.796;2023-08-07T04:14:01;14.30;99.90
55203;DHT22;41077;52.956;6.796;2023-08-07T04:16:27;14.30;99.90
55203;DHT22;41077;52.956;6.796;2023-08-07T04:18:53;14.20;99.90
55203;DHT22;41077;52.956;6.796;2023-08-07T04:21:19;14.20;99.90
55203;DHT22;41077;52.956;6.796;2023-08-07T04:23:44;14.30;99.90
55203;DHT22;41077;52.956;6.796;2023-08-07T04:26:10;14.40;99.90
55203;DHT22;41077;52.956;6.796;2023-08-07T04:28:35;14.40;99.90
55203;DHT22;41077;52.956;6.796;2023-08-07T04:31:01;14.40;99.90
55203;DHT22;41077;52.956;6.796;2023-08-07T04:33:28;14.30;99.90
55203;DHT22;41077;52.956;6.796;2023-08-07T04:35:53;14.30;99.90
55203;DHT22;41077;52.956;6.796;2023-08-07T04:38:19;14.30;99.90
55203;DHT22;41077;52.956;6.796;2023-08-07T04:40:46;14.20;99.90
55203;DHT22;41077;52.956;6.796;2023-08-07T04:43:12;14.30;99.90
55203;DHT22;41077;52.956;6.796;2023-08-07T04:45:38;14.30;99.90
55203;DHT22;41077;52.956;6.796;2023-08-07T04:48:06;14.30;99.90
55203;DHT22;41077;52.956;6.796;2023-08-07T04:50:32;14.30;99.90
55203;DHT22;41077;52.956;6.796;2023-08-07T04:52:57;14.30;99.90
55203;DHT22;41077;52.956;6.796;2023-08-07T04:55:23;14.30;99.90
55203;DHT22;41077;52.956;6.796;2023-08-07T04:57:49;14.40;99.90
55203;DHT22;41077;52.956;6.796;2023-08-07T05:00:16;14.40;99.90
55203;DHT22;41077;52.956;6.796;2023-08-07T05:02:42;14.40;99.90
55203;DHT22;41077;52.956;6.796;2023-08-07T05:05:08;14.50;99.90
55203;DHT22;41077;52.956;6.796;2023-08-07T05:07:35;14.50;99.90
55203;DHT22;41077;52.956;6.796;2023-08-07T05:10:04;14.50;99.90
55203;DHT22;41077;52.956;6.796;2023-08-07T05:12:29;14.50;99.90
55203;DHT22;41077;52.956;6.796;2023-08-07T05:14:55;14.50;99.90
55203;DHT22;41077;52.956;6.796;2023-08-07T05:17:21;14.50;99.90
55203;DHT22;41077;52.956;6.796;2023-08-07T05:19:47;14.60;99.90
55203;DHT22;41077;52.956;6.796;2023-08-07T05:22:12;14.60;99.90
55203;DHT22;41077;52.956;6.796;2023-08-07T05:24:38;14.60;99.90
55203;DHT22;41077;52.956;6.796;2023-08-07T05:27:10;14.70;99.90
55203;DHT22;41077;52.956;6.796;2023-08-07T05:29:36;14.70;99.90
55203;DHT22;41077;52.956;6.796;2023-08-07T05:32:14;14.70;99.90
55203;DHT22;41077;52.956;6.796;2023-08-07T05:34:40;14.70;99.90
55203;DHT22;41077;52.956;6.796;2023-08-07T05:37:06;14.70;99.90
55203;DHT22;41077;52.956;6.796;2023-08-07T05:39:32;14.70;99.90
55203;DHT22;41077;52.956;6.796;2023-08-07T05:41:58;14.60;99.90
55203;DHT22;41077;52.956;6.796;2023-08-07T05:44:24;14.70;99.90
55203;DHT22;41077;52.956;6.796;2023-08-07T05:46:50;14.70;99.90
55203;DHT22;41077;52.956;6.796;2023-08-07T05:49:16;14.70;99.90
55203;DHT22;41077;52.956;6.796;2023-08-07T05:51:42;14.70;99.90
55203;DHT22;41077;52.956;6.796;2023-08-07T05:54:07;14.70;99.90
55203;DHT22;41077;52.956;6.796;2023-08-07T05:56:33;14.70;99.90
55203;DHT22;41077;52.956;6.796;2023-08-07T05:58:59;14.70;99.90
55203;DHT22;41077;52.956;6.796;2023-08-07T06:01:25;14.80;99.90
55203;DHT22;41077;52.956;6.796;2023-08-07T06:03:59;14.80;99.90
55203;DHT22;41077;52.956;6.796;2023-08-07T06:06:25;14.80;99.90
55203;DHT22;41077;52.956;6.796;2023-08-07T06:08:53;14.80;99.90
55203;DHT22;41077;52.956;6.796;2023-08-07T06:11:19;14.80;99.90
55203;DHT22;41077;52.956;6.796;2023-08-07T06:13:45;14.90;99.90
55203;DHT22;41077;52.956;6.796;2023-08-07T06:16:10;14.90;99.90
55203;DHT22;41077;52.956;6.796;2023-08-07T06:18:36;14.90;99.90
55203;DHT22;41077;52.956;6.796;2023-08-07T06:21:03;14.90;99.90
55203;DHT22;41077;52.956;6.796;2023-08-07T06:23:32;15.00;99.90
55203;DHT22;41077;52.956;6.796;2023-08-07T06:25:58;15.10;99.90
55203;DHT22;41077;52.956;6.796;2023-08-07T06:28:24;15.20;99.90
55203;DHT22;41077;52.956;6.796;2023-08-07T06:30:49;15.30;99.90
55203;DHT22;41077;52.956;6.796;2023-08-07T06:33:15;15.30;99.90
55203;DHT22;41077;52.956;6.796;2023-08-07T06:35:41;15.40;99.90
55203;DHT22;41077;52.956;6.796;2023-08-07T06:38:08;15.40;99.90
55203;DHT22;41077;52.956;6.796;2023-08-07T06:40:37;15.30;99.90
55203;DHT22;41077;52.956;6.796;2023-08-07T06:43:03;15.30;99.90
55203;DHT22;41077;52.956;6.796;2023-08-07T06:45:28;15.30;99.90
55203;DHT22;41077;52.956;6.796;2023-08-07T06:47:54;15.20;99.90
55203;DHT22;41077;52.956;6.796;2023-08-07T06:50:20;15.10;99.90
55203;DHT22;41077;52.956;6.796;2023-08-07T06:52:46;15.00;99.90
55203;DHT22;41077;52.956;6.796;2023-08-07T06:55:11;15.10;99.90
55203;DHT22;41077;52.956;6.796;2023-08-07T06:57:37;15.00;99.90
55203;DHT22;41077;52.956;6.796;2023-08-07T07:00:03;15.00;99.90
55203;DHT22;41077;52.956;6.796;2023-08-07T07:02:29;15.00;99.90
55203;DHT22;41077;52.956;6.796;2023-08-07T07:04:55;15.00;99.90
55203;DHT22;41077;52.956;6.796;2023-08-07T07:07:21;15.00;99.90
55203;DHT22;41077;52.956;6.796;2023-08-07T07:09:46;15.00;99.90
55203;DHT22;41077;52.956;6.796;2023-08-07T07:12:12;14.90;99.90
55203;DHT22;41077;52.956;6.796;2023-08-07T07:14:38;15.00;99.90
55203;DHT22;41077;52.956;6.796;2023-08-07T07:17:03;15.00;99.90
55203;DHT22;41077;52.956;6.796;2023-08-07T07:19:29;15.00;99.90
55203;DHT22;41077;52.956;6.796;2023-08-07T07:21:55;15.00;99.90
55203;DHT22;41077;52.956;6.796;2023-08-07T07:24:20;15.10;99.90
55203;DHT22;41077;52.956;6.796;2023-08-07T07:26:46;15.20;99.90
55203;DHT22;41077;52.956;6.796;2023-08-07T07:29:12;15.30;99.90
55203;DHT22;41077;52.956;6.796;2023-08-07T07:31:37;15.40;99.90
55203;DHT22;41077;52.956;6.796;2023-08-07T07:34:03;15.60;99.90
55203;DHT22;41077;52.956;6.796;2023-08-07T07:36:29;15.70;99.90
55203;DHT22;41077;52.956;6.796;2023-08-07T07:38:55;15.80;99.90
55203;DHT22;41077;52.956;6.796;2023-08-07T07:41:22;15.80;99.90
55203;DHT22;41077;52.956;6.796;2023-08-07T07:43:48;15.80;99.90
55203;DHT22;41077;52.956;6.796;2023-08-07T07:46:14;15.80;99.90
55203;DHT22;41077;52.956;6.796;2023-08-07T07:48:39;15.70;99.90
55203;DHT22;41077;52.956;6.796;2023-08-07T07:51:05;15.70;99.90
55203;DHT22;41077;52.956;6.796;2023-08-07T07:53:31;15.70;99.90
55203;DHT22;41077;52.956;6.796;2023-08-07T07:55:57;15.60;99.90
55203;DHT22;41077;52.956;6.796;2023-08-07T07:58:23;15.60;99.90
55203;DHT22;41077;52.956;6.796;2023-08-07T08:00:49;15.50;99.90
55203;DHT22;41077;52.956;6.796;2023-08-07T08:03:14;15.50;99.90
55203;DHT22;41077;52.956;6.796;2023-08-07T08:05:40;15.60;99.90
55203;DHT22;41077;52.956;6.796;2023-08-07T08:08:07;15.40;99.90
55203;DHT22;41077;52.956;6.796;2023-08-07T08:10:33;15.20;99.90
55203;DHT22;41077;52.956;6.796;2023-08-07T08:12:59;15.00;99.90
55203;DHT22;41077;52.956;6.796;2023-08-07T08:15:25;14.90;99.90
55203;DHT22;41077;52.956;6.796;2023-08-07T08:17:51;14.90;99.90
55203;DHT22;41077;52.956;6.796;2023-08-07T08:20:17;15.00;99.90
55203;DHT22;41077;52.956;6.796;2023-08-07T08:22:46;15.10;99.90
55203;DHT22;41077;52.956;6.796;2023-08-07T08:25:13;15.10;99.90
55203;DHT22;41077;52.956;6.796;2023-08-07T08:27:39;15.20;99.90
55203;DHT22;41077;52.956;6.796;2023-08-07T08:30:05;15.30;99.90
55203;DHT22;41077;52.956;6.796;2023-08-07T08:32:31;15.40;99.90
55203;DHT22;41077;52.956;6.796;2023-08-07T08:34:57;15.50;99.90
55203;DHT22;41077;52.956;6.796;2023-08-07T08:37:24;15.40;99.90
55203;DHT22;41077;52.956;6.796;2023-08-07T08:39:50;15.40;99.90
55203;DHT22;41077;52.956;6.796;2023-08-07T08:42:16;15.30;99.90
55203;DHT22;41077;52.956;6.796;2023-08-07T08:44:51;15.30;99.90
55203;DHT22;41077;52.956;6.796;2023-08-07T08:47:17;15.20;99.90
55203;DHT22;41077;52.956;6.796;2023-08-07T08:49:46;15.00;99.90
55203;DHT22;41077;52.956;6.796;2023-08-07T08:52:13;14.90;99.90
55203;DHT22;41077;52.956;6.796;2023-08-07T08:54:40;14.90;99.90
55203;DHT22;41077;52.956;6.796;2023-08-07T08:57:06;15.00;99.90
55203;DHT22;41077;52.956;6.796;2023-08-07T08:59:32;15.00;99.90
55203;DHT22;41077;52.956;6.796;2023-08-07T09:01:59;15.10;99.90
55203;DHT22;41077;52.956;6.796;2023-08-07T09:04:25;15.20;99.90
55203;DHT22;41077;52.956;6.796;2023-08-07T09:06:51;15.40;99.90
55203;DHT22;41077;52.956;6.796;2023-08-07T09:09:20;15.50;99.90
55203;DHT22;41077;52.956;6.796;2023-08-07T09:11:47;15.70;99.90
55203;DHT22;41077;52.956;6.796;2023-08-07T09:14:17;15.80;99.90
55203;DHT22;41077;52.956;6.796;2023-08-07T09:16:47;15.90;99.90
55203;DHT22;41077;52.956;6.796;2023-08-07T09:19:13;16.10;99.90
55203;DHT22;41077;52.956;6.796;2023-08-07T09:21:39;16.30;99.90
55203;DHT22;41077;52.956;6.796;2023-08-07T09:24:05;16.40;99.90
55203;DHT22;41077;52.956;6.796;2023-08-07T09:26:32;16.50;99.90
55203;DHT22;41077;52.956;6.796;2023-08-07T09:29:02;16.60;99.90
55203;DHT22;41077;52.956;6.796;2023-08-07T09:31:28;16.70;99.90
55203;DHT22;41077;52.956;6.796;2023-08-07T09:34:01;16.90;99.90
55203;DHT22;41077;52.956;6.796;2023-08-07T09:36:32;17.10;99.90
55203;DHT22;41077;52.956;6.796;2023-08-07T09:39:02;17.20;99.90
55203;DHT22;41077;52.956;6.796;2023-08-07T09:41:31;17.20;99.90
55203;DHT22;41077;52.956;6.796;2023-08-07T09:43:57;17.30;99.90
55203;DHT22;41077;52.956;6.796;2023-08-07T09:46:25;17.30;99.90
55203;DHT22;41077;52.956;6.796;2023-08-07T09:48:51;17.30;99.90
55203;DHT22;41077;52.956;6.796;2023-08-07T09:51:17;17.30;99.90
55203;DHT22;41077;52.956;6.796;2023-08-07T09:53:42;17.40;99.90
55203;DHT22;41077;52.956;6.796;2023-08-07T09:56:08;17.30;99.90
55203;DHT22;41077;52.956;6.796;2023-08-07T09:58:34;17.40;99.90
55203;DHT22;41077;52.956;6.796;2023-08-07T10:01:03;17.60;99.90
55203;DHT22;41077;52.956;6.796;2023-08-07T10:03:29;17.60;99.90
55203;DHT22;41077;52.956;6.796;2023-08-07T10:05:55;17.40;99.90
55203;DHT22;41077;52.956;6.796;2023-08-07T10:08:21;17.20;99.90
55203;DHT22;41077;52.956;6.796;2023-08-07T10:10:47;17.00;99.90
55203;DHT22;41077;52.956;6.796;2023-08-07T10:13:13;16.90;99.90
55203;DHT22;41077;52.956;6.796;2023-08-07T10:15:40;16.90;99.90
55203;DHT22;41077;52.956;6.796;2023-08-07T10:18:08;17.10;99.90
55203;DHT22;41077;52.956;6.796;2023-08-07T10:20:34;17.30;99.90
55203;DHT22;41077;52.956;6.796;2023-08-07T10:23:07;17.50;99.90
55203;DHT22;41077;52.956;6.796;2023-08-07T10:25:34;17.60;99.90
55203;DHT22;41077;52.956;6.796;2023-08-07T10:28:02;17.50;99.90
55203;DHT22;41077;52.956;6.796;2023-08-07T10:30:30;17.40;99.90
55203;DHT22;41077;52.956;6.796;2023-08-07T10:32:57;17.20;99.90
55203;DHT22;41077;52.956;6.796;2023-08-07T10:35:25;17.10;99.90
55203;DHT22;41077;52.956;6.796;2023-08-07T10:37:52;17.00;99.90
55203;DHT22;41077;52.956;6.796;2023-08-07T10:40:21;17.10;99.90
55203;DHT22;41077;52.956;6.796;2023-08-07T10:42:51;17.20;99.90
55203;DHT22;41077;52.956;6.796;2023-08-07T10:45:18;17.20;99.90
55203;DHT22;41077;52.956;6.796;2023-08-07T10:48:03;17.30;99.90
55203;DHT22;41077;52.956;6.796;2023-08-07T10:53:30;17.30;99.90
55203;DHT22;41077;52.956;6.796;2023-08-07T10:55:56;17.30;99.90
55203;DHT22;41077;52.956;6.796;2023-08-07T10:58:25;17.40;99.90
55203;DHT22;41077;52.956;6.796;2023-08-07T11:03:40;17.20;99.90
55203;DHT22;41077;52.956;6.796;2023-08-07T11:06:09;17.10;99.90
55203;DHT22;41077;52.956;6.796;2023-08-07T11:08:36;17.10;99.90
55203;DHT22;41077;52.956;6.796;2023-08-07T11:11:05;17.00;99.90
55203;DHT22;41077;52.956;6.796;2023-08-07T11:13:32;17.20;99.90
55203;DHT22;41077;52.956;6.796;2023-08-07T11:15:58;17.40;99.90
55203;DHT22;41077;52.956;6.796;2023-08-07T11:18:25;17.70;99.90
55203;DHT22;41077;52.956;6.796;2023-08-07T11:20:54;17.70;99.90
55203;DHT22;41077;52.956;6.796;2023-08-07T11:23:25;17.80;99.90
55203;DHT22;41077;52.956;6.796;2023-08-07T11:25:54;17.80;99.90
55203;DHT22;41077;52.956;6.796;2023-08-07T11:28:21;17.80;99.90
55203;DHT22;41077;52.956;6.796;2023-08-07T11:30:50;17.90;99.90
55203;DHT22;41077;52.956;6.796;2023-08-07T11:33:18;17.90;99.90
55203;DHT22;41077;52.956;6.796;2023-08-07T11:35:45;18.10;99.90
55203;DHT22;41077;52.956;6.796;2023-08-07T11:38:11;18.00;99.90
55203;DHT22;41077;52.956;6.796;2023-08-07T11:40:37;17.80;99.90
55203;DHT22;41077;52.956;6.796;2023-08-07T11:43:02;17.70;99.90
55203;DHT22;41077;52.956;6.796;2023-08-07T11:45:29;17.50;99.90
55203;DHT22;41077;52.956;6.796;2023-08-07T11:47:55;17.60;99.90
55203;DHT22;41077;52.956;6.796;2023-08-07T11:50:26;17.60;99.90
55203;DHT22;41077;52.956;6.796;2023-08-07T11:52:53;17.60;99.90
55203;DHT22;41077;52.956;6.796;2023-08-07T11:55:19;17.60;99.90
55203;DHT22;41077;52.956;6.796;2023-08-07T11:57:47;17.70;99.90
55203;DHT22;41077;52.956;6.796;2023-08-07T12:00:13;17.70;99.90
55203;DHT22;41077;52.956;6.796;2023-08-07T12:02:43;17.70;99.90
55203;DHT22;41077;52.956;6.796;2023-08-07T12:05:10;17.60;99.90
55203;DHT22;41077;52.956;6.796;2023-08-07T12:07:39;17.60;99.90
55203;DHT22;41077;52.956;6.796;2023-08-07T12:10:09;17.60;99.90
55203;DHT22;41077;52.956;6.796;2023-08-07T12:12:38;17.70;99.90
55203;DHT22;41077;52.956;6.796;2023-08-07T12:15:08;17.80;99.90
55203;DHT22;41077;52.956;6.796;2023-08-07T12:17:35;18.00;99.90
55203;DHT22;41077;52.956;6.796;2023-08-07T12:20:04;18.00;99.90
55203;DHT22;41077;52.956;6.796;2023-08-07T12:22:31;18.10;99.90
55203;DHT22;41077;52.956;6.796;2023-08-07T12:24:57;18.10;99.90
55203;DHT22;41077;52.956;6.796;2023-08-07T12:27:23;18.30;99.90
55203;DHT22;41077;52.956;6.796;2023-08-07T12:29:48;18.30;99.90
55203;DHT22;41077;52.956;6.796;2023-08-07T12:32:14;18.30;99.90
55203;DHT22;41077;52.956;6.796;2023-08-07T12:34:40;18.00;99.90
55203;DHT22;41077;52.956;6.796;2023-08-07T12:37:06;17.90;99.90
55203;DHT22;41077;52.956;6.796;2023-08-07T12:39:32;17.80;99.90
55203;DHT22;41077;52.956;6.796;2023-08-07T12:41:58;17.80;99.90
55203;DHT22;41077;52.956;6.796;2023-08-07T12:44:24;17.60;99.90
55203;DHT22;41077;52.956;6.796;2023-08-07T12:46:49;17.50;99.90
55203;DHT22;41077;52.956;6.796;2023-08-07T12:49:15;17.60;99.90
55203;DHT22;41077;52.956;6.796;2023-08-07T12:51:43;17.70;99.90
55203;DHT22;41077;52.956;6.796;2023-08-07T12:54:09;17.60;99.90
55203;DHT22;41077;52.956;6.796;2023-08-07T12:56:34;17.60;99.90
55203;DHT22;41077;52.956;6.796;2023-08-07T12:59:00;17.60;99.90
55203;DHT22;41077;52.956;6.796;2023-08-07T13:01:26;17.40;99.90
55203;DHT22;41077;52.956;6.796;2023-08-07T13:03:52;17.30;99.90
55203;DHT22;41077;52.956;6.796;2023-08-07T13:06:17;17.30;99.90
55203;DHT22;41077;52.956;6.796;2023-08-07T13:08:44;17.40;99.90
55203;DHT22;41077;52.956;6.796;2023-08-07T13:11:11;17.60;99.90
55203;DHT22;41077;52.956;6.796;2023-08-07T13:13:37;17.70;99.90
55203;DHT22;41077;52.956;6.796;2023-08-07T13:16:04;17.70;99.90
55203;DHT22;41077;52.956;6.796;2023-08-07T13:18:29;17.80;99.90
55203;DHT22;41077;52.956;6.796;2023-08-07T13:20:55;17.80;99.90
55203;DHT22;41077;52.956;6.796;2023-08-07T13:23:22;17.70;99.90
55203;DHT22;41077;52.956;6.796;2023-08-07T13:25:47;17.80;99.90
55203;DHT22;41077;52.956;6.796;2023-08-07T13:28:13;17.80;99.90
55203;DHT22;41077;52.956;6.796;2023-08-07T13:30:39;17.80;99.90
55203;DHT22;41077;52.956;6.796;2023-08-07T13:33:05;17.70;99.90
55203;DHT22;41077;52.956;6.796;2023-08-07T13:35:31;17.70;99.90
55203;DHT22;41077;52.956;6.796;2023-08-07T13:37:58;17.70;99.90
55203;DHT22;41077;52.956;6.796;2023-08-07T13:40:24;17.70;99.90
55203;DHT22;41077;52.956;6.796;2023-08-07T13:42:49;17.80;99.90
55203;DHT22;41077;52.956;6.796;2023-08-07T13:45:15;17.70;99.90
55203;DHT22;41077;52.956;6.796;2023-08-07T13:47:41;17.60;99.90
55203;DHT22;41077;52.956;6.796;2023-08-07T13:50:07;17.70;99.90
55203;DHT22;41077;52.956;6.796;2023-08-07T13:52:35;17.60;99.90
55203;DHT22;41077;52.956;6.796;2023-08-07T13:55:01;17.60;99.90
55203;DHT22;41077;52.956;6.796;2023-08-07T13:57:27;17.70;99.90
55203;DHT22;41077;52.956;6.796;2023-08-07T13:59:52;17.70;99.90
55203;DHT22;41077;52.956;6.796;2023-08-07T14:02:20;17.70;99.90
55203;DHT22;41077;52.956;6.796;2023-08-07T14:04:45;17.90;99.90
55203;DHT22;41077;52.956;6.796;2023-08-07T14:07:11;17.80;99.90
55203;DHT22;41077;52.956;6.796;2023-08-07T14:09:37;18.10;99.90
55203;DHT22;41077;52.956;6.796;2023-08-07T14:12:03;18.10;99.90
55203;DHT22;41077;52.956;6.796;2023-08-07T14:14:29;18.10;99.90
55203;DHT22;41077;52.956;6.796;2023-08-07T14:16:55;18.00;99.90
55203;DHT22;41077;52.956;6.796;2023-08-07T14:19:23;17.90;99.90
55203;DHT22;41077;52.956;6.796;2023-08-07T14:21:50;18.00;99.90
55203;DHT22;41077;52.956;6.796;2023-08-07T14:24:15;18.10;99.90
55203;DHT22;41077;52.956;6.796;2023-08-07T14:26:42;18.20;99.90
55203;DHT22;41077;52.956;6.796;2023-08-07T14:29:08;18.10;99.90
55203;DHT22;41077;52.956;6.796;2023-08-07T14:31:34;18.10;99.90
55203;DHT22;41077;52.956;6.796;2023-08-07T14:34:00;17.90;99.90
55203;DHT22;41077;52.956;6.796;2023-08-07T14:36:25;17.90;99.90
55203;DHT22;41077;52.956;6.796;2023-08-07T14:38:51;17.90;99.90
55203;DHT22;41077;52.956;6.796;2023-08-07T14:41:18;17.90;99.90
55203;DHT22;41077;52.956;6.796;2023-08-07T14:43:44;17.90;99.90
55203;DHT22;41077;52.956;6.796;2023-08-07T14:46:10;17.80;99.90
55203;DHT22;41077;52.956;6.796;2023-08-07T14:48:35;17.80;99.90
55203;DHT22;41077;52.956;6.796;2023-08-07T14:51:02;17.70;99.90
55203;DHT22;41077;52.956;6.796;2023-08-07T14:53:28;17.60;99.90
55203;DHT22;41077;52.956;6.796;2023-08-07T14:55:54;17.50;99.90
55203;DHT22;41077;52.956;6.796;2023-08-07T14:58:19;17.60;99.90
55203;DHT22;41077;52.956;6.796;2023-08-07T15:00:48;17.60;99.90
55203;DHT22;41077;52.956;6.796;2023-08-07T15:03:15;17.60;99.90
55203;DHT22;41077;52.956;6.796;2023-08-07T15:05:41;17.60;99.90
55203;DHT22;41077;52.956;6.796;2023-08-07T15:08:07;17.60;99.90
55203;DHT22;41077;52.956;6.796;2023-08-07T15:10:32;17.60;99.90
55203;DHT22;41077;52.956;6.796;2023-08-07T15:12:59;17.60;99.90
55203;DHT22;41077;52.956;6.796;2023-08-07T15:15:25;17.50;99.90
55203;DHT22;41077;52.956;6.796;2023-08-07T15:17:51;17.50;99.90
55203;DHT22;41077;52.956;6.796;2023-08-07T15:20:18;17.40;99.90
55203;DHT22;41077;52.956;6.796;2023-08-07T15:22:46;17.50;99.90
55203;DHT22;41077;52.956;6.796;2023-08-07T15:25:13;17.70;99.90
55203;DHT22;41077;52.956;6.796;2023-08-07T15:27:39;17.90;99.90
55203;DHT22;41077;52.956;6.796;2023-08-07T15:30:05;17.90;99.90
55203;DHT22;41077;52.956;6.796;2023-08-07T15:32:31;17.80;99.90
55203;DHT22;41077;52.956;6.796;2023-08-07T15:34:56;17.70;99.90
55203;DHT22;41077;52.956;6.796;2023-08-07T15:37:22;17.80;99.90
55203;DHT22;41077;52.956;6.796;2023-08-07T15:39:48;17.90;99.90